sensor_id;sensor_type;location;lat;lon;timestamp;pressure;altitude;pressure_sealevel;temperature;humidity
34205;BME280;20471;49.680;20.074;2023-02-10T00:01:42;98846.38;;;-7.15;63.96
34205;BME280;20471;49.680;20.074;2023-02-10T00:04:12;98841.93;;;-7.10;64.01
34205;BME280;20471;49.680;20.074;2023-02-10T00:06:40;98845.77;;;-7.06;63.98
34205;BME280;20471;49.680;20.074;2023-02-10T00:09:11;98851.38;;;-7.02;63.89
34205;BME280;20471;49.680;20.074;2023-02-10T00:11:40;98856.79;;;-6.98;63.75
34205;BME280;20471;49.680;20.074;2023-02-10T00:14:28;98856.96;;;-6.94;63.66
34205;BME280;20471;49.680;20.074;2023-02-10T00:16:56;98858.42;;;-6.91;63.65
34205;BME280;20471;49.680;20.074;2023-02-10T00:19:26;98858.02;;;-6.86;63.71
34205;BME280;20471;49.680;20.074;2023-02-10T00:21:54;98857.17;;;-6.75;63.68
34205;BME280;20471;49.680;20.074;2023-02-10T00:24:23;98856.40;;;-6.66;63.60
34205;BME280;20471;49.680;20.074;2023-02-10T00:26:52;98860.98;;;-6.59;63.55
34205;BME280;20471;49.680;20.074;2023-02-10T00:29:20;98865.56;;;-6.52;63.43
34205;BME280;20471;49.680;20.074;2023-02-10T00:31:48;98862.95;;;-6.45;63.26
34205;BME280;20471;49.680;20.074;2023-02-10T00:34:17;98859.20;;;-6.39;63.19
34205;BME280;20471;49.680;20.074;2023-02-10T00:36:45;98863.18;;;-6.35;63.18
34205;BME280;20471;49.680;20.074;2023-02-10T00:39:16;98866.99;;;-6.34;63.13
34205;BME280;20471;49.680;20.074;2023-02-10T00:41:45;98861.27;;;-6.39;62.81
34205;BME280;20471;49.680;20.074;2023-02-10T00:44:13;98852.83;;;-6.41;62.79
34205;BME280;20471;49.680;20.074;2023-02-10T00:46:41;98852.06;;;-6.40;62.74
34205;BME280;20471;49.680;20.074;2023-02-10T00:49:10;98848.91;;;-6.40;62.61
34205;BME280;20471;49.680;20.074;2023-02-10T00:51:38;98846.31;;;-6.45;62.73
34205;BME280;20471;49.680;20.074;2023-02-10T00:54:07;98844.25;;;-6.53;62.65
34205;BME280;20471;49.680;20.074;2023-02-10T00:56:35;98840.98;;;-6.58;62.56
34205;BME280;20471;49.680;20.074;2023-02-10T00:59:04;98842.48;;;-6.57;62.66
34205;BME280;20471;49.680;20.074;2023-02-10T01:01:32;98834.68;;;-6.58;62.56
34205;BME280;20471;49.680;20.074;2023-02-10T01:04:24;98834.45;;;-6.68;62.58
34205;BME280;20471;49.680;20.074;2023-02-10T01:06:53;98832.42;;;-6.77;62.61
34205;BME280;20471;49.680;20.074;2023-02-10T01:09:21;98828.56;;;-6.81;62.62
34205;BME280;20471;49.680;20.074;2023-02-10T01:11:49;98837.67;;;-6.85;62.53
34205;BME280;20471;49.680;20.074;2023-02-10T01:14:31;98841.16;;;-6.88;62.61
34205;BME280;20471;49.680;20.074;2023-02-10T01:17:00;98850.59;;;-6.92;62.67
34205;BME280;20471;49.680;20.074;2023-02-10T01:19:28;98861.46;;;-6.93;62.63
34205;BME280;20471;49.680;20.074;2023-02-10T01:21:57;98874.92;;;-6.96;62.57
34205;BME280;20471;49.680;20.074;2023-02-10T01:24:25;98877.66;;;-7.07;62.38
34205;BME280;20471;49.680;20.074;2023-02-10T01:26:53;98869.30;;;-7.20;62.57
34205;BME280;20471;49.680;20.074;2023-02-10T01:29:24;98866.01;;;-7.24;62.80
34205;BME280;20471;49.680;20.074;2023-02-10T01:31:52;98863.02;;;-7.24;62.80
34205;BME280;20471;49.680;20.074;2023-02-10T01:34:20;98863.62;;;-7.25;62.82
34205;BME280;20471;49.680;20.074;2023-02-10T01:36:49;98866.54;;;-7.28;62.69
34205;BME280;20471;49.680;20.074;2023-02-10T01:39:17;98864.48;;;-7.34;62.60
34205;BME280;20471;49.680;20.074;2023-02-10T01:41:45;98862.59;;;-7.42;62.63
34205;BME280;20471;49.680;20.074;2023-02-10T01:46:48;98860.67;;;-7.55;62.58
34205;BME280;20471;49.680;20.074;2023-02-10T01:49:19;98858.64;;;-7.65;62.67
34205;BME280;20471;49.680;20.074;2023-02-10T01:54:24;98854.07;;;-7.77;63.16
34205;BME280;20471;49.680;20.074;2023-02-10T01:56:54;98848.94;;;-7.80;63.19
34205;BME280;20471;49.680;20.074;2023-02-10T01:59:25;98850.13;;;-7.83;63.26
34205;BME280;20471;49.680;20.074;2023-02-10T02:01:54;98845.81;;;-7.80;63.62
34205;BME280;20471;49.680;20.074;2023-02-10T02:04:23;98835.66;;;-7.71;63.86
34205;BME280;20471;49.680;20.074;2023-02-10T02:06:51;98829.63;;;-7.61;63.77
34205;BME280;20471;49.680;20.074;2023-02-10T02:09:25;98818.95;;;-7.56;63.69
34205;BME280;20471;49.680;20.074;2023-02-10T02:14:41;98824.24;;;-7.66;63.46
34205;BME280;20471;49.680;20.074;2023-02-10T02:17:21;98830.84;;;-7.69;63.57
34205;BME280;20471;49.680;20.074;2023-02-10T02:34:45;98791.96;;;-7.55;64.35
34205;BME280;20471;49.680;20.074;2023-02-10T02:37:21;98785.49;;;-7.43;64.42
34205;BME280;20471;49.680;20.074;2023-02-10T02:39:52;98783.15;;;-7.30;64.52
34205;BME280;20471;49.680;20.074;2023-02-10T02:42:27;98777.13;;;-7.12;64.61
34205;BME280;20471;49.680;20.074;2023-02-10T02:50:28;98791.49;;;-6.89;64.25
34205;BME280;20471;49.680;20.074;2023-02-10T02:53:10;98799.54;;;-6.78;64.36
34205;BME280;20471;49.680;20.074;2023-02-10T03:01:14;98797.54;;;-6.61;64.02
34205;BME280;20471;49.680;20.074;2023-02-10T03:03:43;98795.06;;;-6.57;63.98
34205;BME280;20471;49.680;20.074;2023-02-10T03:06:12;98788.79;;;-6.54;64.02
34205;BME280;20471;49.680;20.074;2023-02-10T03:08:41;98787.77;;;-6.51;64.01
34205;BME280;20471;49.680;20.074;2023-02-10T03:11:09;98791.28;;;-6.47;63.98
34205;BME280;20471;49.680;20.074;2023-02-10T03:13:37;98785.61;;;-6.42;64.13
34205;BME280;20471;49.680;20.074;2023-02-10T03:16:05;98776.04;;;-6.37;63.99
34205;BME280;20471;49.680;20.074;2023-02-10T03:18:37;98776.52;;;-6.32;63.97
34205;BME280;20471;49.680;20.074;2023-02-10T03:21:05;98776.21;;;-6.29;63.84
34205;BME280;20471;49.680;20.074;2023-02-10T03:23:33;98781.35;;;-6.27;63.81
34205;BME280;20471;49.680;20.074;2023-02-10T03:26:02;98786.77;;;-6.27;63.75
34205;BME280;20471;49.680;20.074;2023-02-10T03:28:30;98786.41;;;-6.27;63.73
34205;BME280;20471;49.680;20.074;2023-02-10T03:31:02;98787.59;;;-6.26;63.71
34205;BME280;20471;49.680;20.074;2023-02-10T03:33:31;98788.44;;;-6.25;63.73
34205;BME280;20471;49.680;20.074;2023-02-10T03:36:00;98789.55;;;-6.23;63.74
34205;BME280;20471;49.680;20.074;2023-02-10T03:38:29;98796.63;;;-6.20;63.80
34205;BME280;20471;49.680;20.074;2023-02-10T03:40:57;98800.56;;;-6.18;63.73
34205;BME280;20471;49.680;20.074;2023-02-10T03:43:25;98800.98;;;-6.16;63.56
34205;BME280;20471;49.680;20.074;2023-02-10T03:45:53;98802.09;;;-6.17;63.47
34205;BME280;20471;49.680;20.074;2023-02-10T03:48:21;98802.17;;;-6.19;63.65
34205;BME280;20471;49.680;20.074;2023-02-10T03:50:53;98797.95;;;-6.22;63.60
34205;BME280;20471;49.680;20.074;2023-02-10T03:53:21;98796.70;;;-6.26;63.57
34205;BME280;20471;49.680;20.074;2023-02-10T03:55:49;98802.55;;;-6.27;63.44
34205;BME280;20471;49.680;20.074;2023-02-10T03:58:17;98805.48;;;-6.30;63.40
34205;BME280;20471;49.680;20.074;2023-02-10T04:00:45;98793.73;;;-6.33;63.54
34205;BME280;20471;49.680;20.074;2023-02-10T04:03:13;98802.23;;;-6.35;63.54
34205;BME280;20471;49.680;20.074;2023-02-10T04:05:42;98805.14;;;-6.33;63.49
34205;BME280;20471;49.680;20.074;2023-02-10T04:08:10;98806.52;;;-6.33;63.42
34205;BME280;20471;49.680;20.074;2023-02-10T04:10:38;98810.15;;;-6.32;63.57
34205;BME280;20471;49.680;20.074;2023-02-10T04:13:06;98810.79;;;-6.31;63.53
34205;BME280;20471;49.680;20.074;2023-02-10T04:15:35;98807.19;;;-6.29;63.59
34205;BME280;20471;49.680;20.074;2023-02-10T04:18:03;98806.08;;;-6.28;63.49
34205;BME280;20471;49.680;20.074;2023-02-10T04:20:31;98799.24;;;-6.27;63.65
34205;BME280;20471;49.680;20.074;2023-02-10T04:22:59;98794.90;;;-6.25;63.59
34205;BME280;20471;49.680;20.074;2023-02-10T04:25:27;98793.50;;;-6.21;63.62
34205;BME280;20471;49.680;20.074;2023-02-10T04:27:55;98795.12;;;-6.18;63.75
34205;BME280;20471;49.680;20.074;2023-02-10T04:30:24;98791.81;;;-6.18;63.80
34205;BME280;20471;49.680;20.074;2023-02-10T04:32:52;98787.17;;;-6.16;63.57
34205;BME280;20471;49.680;20.074;2023-02-10T04:35:20;98790.34;;;-6.17;63.54
34205;BME280;20471;49.680;20.074;2023-02-10T04:37:48;98797.60;;;-6.15;63.65
34205;BME280;20471;49.680;20.074;2023-02-10T04:40:16;98798.75;;;-6.13;63.60
34205;BME280;20471;49.680;20.074;2023-02-10T04:42:44;98802.27;;;-6.13;63.36
34205;BME280;20471;49.680;20.074;2023-02-10T04:45:12;98808.21;;;-6.13;63.34
34205;BME280;20471;49.680;20.074;2023-02-10T04:47:40;98815.44;;;-6.14;63.53
34205;BME280;20471;49.680;20.074;2023-02-10T04:50:08;98812.73;;;-6.16;63.46
34205;BME280;20471;49.680;20.074;2023-02-10T04:52:36;98816.91;;;-6.15;63.39
34205;BME280;20471;49.680;20.074;2023-02-10T04:55:04;98818.98;;;-6.15;63.69
34205;BME280;20471;49.680;20.074;2023-02-10T04:57:33;98822.80;;;-6.14;63.69
34205;BME280;20471;49.680;20.074;2023-02-10T05:00:01;98823.25;;;-6.13;63.59
34205;BME280;20471;49.680;20.074;2023-02-10T05:02:29;98822.08;;;-6.17;63.57
34205;BME280;20471;49.680;20.074;2023-02-10T05:04:57;98830.40;;;-6.23;63.47
34205;BME280;20471;49.680;20.074;2023-02-10T05:07:26;98830.26;;;-6.31;63.48
34205;BME280;20471;49.680;20.074;2023-02-10T05:09:54;98833.20;;;-6.34;63.51
34205;BME280;20471;49.680;20.074;2023-02-10T05:12:22;98831.02;;;-6.36;63.60
34205;BME280;20471;49.680;20.074;2023-02-10T05:14:50;98832.23;;;-6.36;63.62
34205;BME280;20471;49.680;20.074;2023-02-10T05:17:18;98838.73;;;-6.40;63.41
34205;BME280;20471;49.680;20.074;2023-02-10T05:19:46;98845.45;;;-6.45;63.54
34205;BME280;20471;49.680;20.074;2023-02-10T05:22:14;98844.38;;;-6.44;63.62
34205;BME280;20471;49.680;20.074;2023-02-10T05:24:43;98839.41;;;-6.47;63.57
34205;BME280;20471;49.680;20.074;2023-02-10T05:27:11;98838.45;;;-6.53;63.60
34205;BME280;20471;49.680;20.074;2023-02-10T05:29:39;98841.42;;;-6.64;63.52
34205;BME280;20471;49.680;20.074;2023-02-10T05:32:07;98841.63;;;-6.68;63.56
34205;BME280;20471;49.680;20.074;2023-02-10T05:34:35;98841.67;;;-6.73;63.90
34205;BME280;20471;49.680;20.074;2023-02-10T05:37:03;98843.10;;;-6.81;63.93
34205;BME280;20471;49.680;20.074;2023-02-10T05:39:31;98842.52;;;-6.88;64.00
34205;BME280;20471;49.680;20.074;2023-02-10T05:41:59;98848.13;;;-6.96;63.85
34205;BME280;20471;49.680;20.074;2023-02-10T05:44:29;98854.91;;;-7.07;64.00
34205;BME280;20471;49.680;20.074;2023-02-10T05:46:57;98861.07;;;-7.08;64.23
34205;BME280;20471;49.680;20.074;2023-02-10T05:49:26;98860.87;;;-7.07;64.26
34205;BME280;20471;49.680;20.074;2023-02-10T05:51:54;98864.30;;;-7.13;64.40
34205;BME280;20471;49.680;20.074;2023-02-10T05:54:22;98863.88;;;-7.20;64.46
34205;BME280;20471;49.680;20.074;2023-02-10T05:56:50;98863.16;;;-7.19;64.59
34205;BME280;20471;49.680;20.074;2023-02-10T05:59:19;98864.98;;;-7.17;64.61
34205;BME280;20471;49.680;20.074;2023-02-10T06:01:47;98871.77;;;-7.16;64.83
34205;BME280;20471;49.680;20.074;2023-02-10T06:04:15;98870.56;;;-7.16;64.76
34205;BME280;20471;49.680;20.074;2023-02-10T06:06:43;98862.68;;;-7.16;64.85
34205;BME280;20471;49.680;20.074;2023-02-10T06:09:11;98865.95;;;-7.15;65.00
34205;BME280;20471;49.680;20.074;2023-02-10T06:11:39;98866.46;;;-7.15;64.74
34205;BME280;20471;49.680;20.074;2023-02-10T06:14:08;98870.13;;;-7.19;64.72
34205;BME280;20471;49.680;20.074;2023-02-10T06:16:36;98869.44;;;-7.23;64.65
34205;BME280;20471;49.680;20.074;2023-02-10T06:19:04;98868.69;;;-7.22;64.76
34205;BME280;20471;49.680;20.074;2023-02-10T06:21:32;98873.42;;;-7.22;64.94
34205;BME280;20471;49.680;20.074;2023-02-10T06:24:00;98874.47;;;-7.22;65.15
34205;BME280;20471;49.680;20.074;2023-02-10T06:26:28;98875.73;;;-7.19;65.08
34205;BME280;20471;49.680;20.074;2023-02-10T06:28:57;98868.00;;;-7.22;65.03
34205;BME280;20471;49.680;20.074;2023-02-10T06:31:25;98870.91;;;-7.25;65.09
34205;BME280;20471;49.680;20.074;2023-02-10T06:33:53;98872.14;;;-7.21;65.16
34205;BME280;20471;49.680;20.074;2023-02-10T06:36:21;98874.41;;;-7.17;65.23
34205;BME280;20471;49.680;20.074;2023-02-10T06:38:49;98879.09;;;-7.12;65.15
34205;BME280;20471;49.680;20.074;2023-02-10T06:41:17;98873.64;;;-7.11;65.25
34205;BME280;20471;49.680;20.074;2023-02-10T06:43:46;98874.94;;;-7.09;65.18
34205;BME280;20471;49.680;20.074;2023-02-10T06:46:14;98874.30;;;-7.06;65.26
34205;BME280;20471;49.680;20.074;2023-02-10T06:48:42;98875.20;;;-7.02;65.17
34205;BME280;20471;49.680;20.074;2023-02-10T06:51:10;98876.48;;;-7.00;65.06
34205;BME280;20471;49.680;20.074;2023-02-10T06:53:38;98876.73;;;-6.98;65.02
34205;BME280;20471;49.680;20.074;2023-02-10T06:56:06;98879.52;;;-6.98;64.98
34205;BME280;20471;49.680;20.074;2023-02-10T06:58:35;98883.03;;;-6.98;64.91
34205;BME280;20471;49.680;20.074;2023-02-10T07:01:07;98880.42;;;-6.99;64.85
34205;BME280;20471;49.680;20.074;2023-02-10T07:03:36;98882.00;;;-6.94;65.06
34205;BME280;20471;49.680;20.074;2023-02-10T07:06:04;98880.90;;;-6.89;65.18
34205;BME280;20471;49.680;20.074;2023-02-10T07:08:32;98880.34;;;-6.84;65.26
34205;BME280;20471;49.680;20.074;2023-02-10T07:11:01;98879.98;;;-6.80;65.38
34205;BME280;20471;49.680;20.074;2023-02-10T07:13:29;98880.11;;;-6.71;65.38
34205;BME280;20471;49.680;20.074;2023-02-10T07:15:57;98879.08;;;-6.64;65.45
34205;BME280;20471;49.680;20.074;2023-02-10T07:18:25;98879.61;;;-6.53;65.35
34205;BME280;20471;49.680;20.074;2023-02-10T07:20:54;98875.77;;;-6.42;65.38
34205;BME280;20471;49.680;20.074;2023-02-10T07:23:22;98875.30;;;-6.32;65.36
34205;BME280;20471;49.680;20.074;2023-02-10T07:25:50;98877.83;;;-6.21;65.30
34205;BME280;20471;49.680;20.074;2023-02-10T07:28:18;98874.50;;;-6.10;65.34
34205;BME280;20471;49.680;20.074;2023-02-10T07:30:46;98872.39;;;-5.99;65.35
34205;BME280;20471;49.680;20.074;2023-02-10T07:33:14;98873.36;;;-5.88;65.19
34205;BME280;20471;49.680;20.074;2023-02-10T07:35:43;98875.30;;;-5.77;65.18
34205;BME280;20471;49.680;20.074;2023-02-10T07:38:11;98877.59;;;-5.67;65.04
34205;BME280;20471;49.680;20.074;2023-02-10T07:40:39;98873.38;;;-5.56;65.09
34205;BME280;20471;49.680;20.074;2023-02-10T07:43:07;98871.57;;;-5.44;65.05
34205;BME280;20471;49.680;20.074;2023-02-10T07:45:35;98869.16;;;-5.31;64.85
34205;BME280;20471;49.680;20.074;2023-02-10T07:48:06;98865.66;;;-5.18;64.72
34205;BME280;20471;49.680;20.074;2023-02-10T07:50:35;98865.10;;;-5.04;64.73
34205;BME280;20471;49.680;20.074;2023-02-10T07:53:04;98867.58;;;-4.91;64.59
34205;BME280;20471;49.680;20.074;2023-02-10T07:55:32;98863.17;;;-4.77;64.45
34205;BME280;20471;49.680;20.074;2023-02-10T07:58:00;98866.01;;;-4.64;64.41
34205;BME280;20471;49.680;20.074;2023-02-10T08:00:28;98867.86;;;-4.50;64.22
34205;BME280;20471;49.680;20.074;2023-02-10T08:02:56;98865.50;;;-4.36;64.09
34205;BME280;20471;49.680;20.074;2023-02-10T08:05:25;98864.09;;;-4.20;63.98
34205;BME280;20471;49.680;20.074;2023-02-10T08:07:55;98863.46;;;-4.02;63.94
34205;BME280;20471;49.680;20.074;2023-02-10T08:10:23;98862.93;;;-3.83;63.77
34205;BME280;20471;49.680;20.074;2023-02-10T08:12:51;98860.11;;;-3.64;63.67
34205;BME280;20471;49.680;20.074;2023-02-10T08:15:19;98860.88;;;-3.48;63.39
34205;BME280;20471;49.680;20.074;2023-02-10T08:17:49;98864.13;;;-3.28;63.15
34205;BME280;20471;49.680;20.074;2023-02-10T08:20:17;98870.86;;;-3.11;62.86
34205;BME280;20471;49.680;20.074;2023-02-10T08:22:45;98871.50;;;-2.95;62.62
34205;BME280;20471;49.680;20.074;2023-02-10T08:25:13;98872.58;;;-2.75;62.50
34205;BME280;20471;49.680;20.074;2023-02-10T08:27:41;98879.02;;;-2.54;61.94
34205;BME280;20471;49.680;20.074;2023-02-10T08:30:09;98876.65;;;-2.35;61.72
34205;BME280;20471;49.680;20.074;2023-02-10T08:32:38;98873.55;;;-2.17;61.58
34205;BME280;20471;49.680;20.074;2023-02-10T08:35:06;98877.41;;;-1.97;61.46
34205;BME280;20471;49.680;20.074;2023-02-10T08:37:35;98878.15;;;-1.76;61.36
34205;BME280;20471;49.680;20.074;2023-02-10T08:40:04;98876.55;;;-1.54;60.98
34205;BME280;20471;49.680;20.074;2023-02-10T08:42:34;98878.77;;;-1.34;60.82
34205;BME280;20471;49.680;20.074;2023-02-10T08:45:02;98881.25;;;-1.13;60.47
34205;BME280;20471;49.680;20.074;2023-02-10T08:47:32;98881.55;;;-0.89;60.52
34205;BME280;20471;49.680;20.074;2023-02-10T08:50:00;98879.96;;;-0.66;60.07
34205;BME280;20471;49.680;20.074;2023-02-10T08:52:29;98878.23;;;-0.46;59.56
34205;BME280;20471;49.680;20.074;2023-02-10T08:54:57;98877.05;;;-0.24;59.55
34205;BME280;20471;49.680;20.074;2023-02-10T08:57:26;98882.66;;;-0.01;59.03
34205;BME280;20471;49.680;20.074;2023-02-10T08:59:54;98878.55;;;0.21;58.79
34205;BME280;20471;49.680;20.074;2023-02-10T09:02:22;98871.26;;;0.41;58.48
34205;BME280;20471;49.680;20.074;2023-02-10T09:04:50;98875.46;;;0.68;58.06
34205;BME280;20471;49.680;20.074;2023-02-10T09:07:19;98877.33;;;0.95;57.59
34205;BME280;20471;49.680;20.074;2023-02-10T09:09:47;98881.88;;;1.19;57.33
34205;BME280;20471;49.680;20.074;2023-02-10T09:12:15;98881.96;;;1.43;57.09
34205;BME280;20471;49.680;20.074;2023-02-10T09:14:43;98880.39;;;1.65;57.08
34205;BME280;20471;49.680;20.074;2023-02-10T09:17:11;98880.04;;;1.79;56.50
34205;BME280;20471;49.680;20.074;2023-02-10T09:19:39;98880.52;;;1.97;56.17
34205;BME280;20471;49.680;20.074;2023-02-10T09:22:08;98881.53;;;2.11;55.71
34205;BME280;20471;49.680;20.074;2023-02-10T09:24:36;98879.77;;;2.26;55.48
34205;BME280;20471;49.680;20.074;2023-02-10T09:27:04;98882.11;;;2.41;55.22
34205;BME280;20471;49.680;20.074;2023-02-10T09:29:32;98882.21;;;2.53;54.94
34205;BME280;20471;49.680;20.074;2023-02-10T09:32:00;98884.90;;;2.70;54.85
34205;BME280;20471;49.680;20.074;2023-02-10T09:34:32;98887.68;;;2.86;54.21
34205;BME280;20471;49.680;20.074;2023-02-10T09:37:00;98890.17;;;3.01;54.02
34205;BME280;20471;49.680;20.074;2023-02-10T09:39:29;98895.55;;;3.06;53.65
34205;BME280;20471;49.680;20.074;2023-02-10T09:42:08;98892.77;;;3.10;53.19
34205;BME280;20471;49.680;20.074;2023-02-10T09:44:41;98896.13;;;3.16;53.02
34205;BME280;20471;49.680;20.074;2023-02-10T09:47:31;98890.98;;;3.18;52.84
34205;BME280;20471;49.680;20.074;2023-02-10T09:52:56;98883.41;;;3.36;52.53
34205;BME280;20471;49.680;20.074;2023-02-10T09:55:34;98882.43;;;3.42;52.05
34205;BME280;20471;49.680;20.074;2023-02-10T10:00:39;98872.39;;;3.61;51.55
34205;BME280;20471;49.680;20.074;2023-02-10T10:03:18;98862.90;;;3.72;51.19
34205;BME280;20471;49.680;20.074;2023-02-10T10:06:20;98860.26;;;3.94;51.23
34205;BME280;20471;49.680;20.074;2023-02-10T10:09:21;98851.10;;;4.13;50.52
34205;BME280;20471;49.680;20.074;2023-02-10T10:11:48;98847.68;;;4.11;50.24
34205;BME280;20471;49.680;20.074;2023-02-10T10:14:25;98850.24;;;4.20;50.45
34205;BME280;20471;49.680;20.074;2023-02-10T10:17:14;98845.84;;;4.33;50.18
34205;BME280;20471;49.680;20.074;2023-02-10T10:31:29;98838.39;;;5.35;48.95
34205;BME280;20471;49.680;20.074;2023-02-10T10:36:41;98836.45;;;5.73;48.28
34205;BME280;20471;49.680;20.074;2023-02-10T10:39:33;98840.96;;;5.98;48.09
34205;BME280;20471;49.680;20.074;2023-02-10T10:44:54;98841.37;;;6.55;47.57
34205;BME280;20471;49.680;20.074;2023-02-10T10:49:54;98829.34;;;6.66;46.84
34205;BME280;20471;49.680;20.074;2023-02-10T10:52:25;98824.65;;;6.76;46.82
34205;BME280;20471;49.680;20.074;2023-02-10T10:54:55;98825.92;;;6.91;46.68
34205;BME280;20471;49.680;20.074;2023-02-10T10:57:27;98825.51;;;7.04;46.62
34205;BME280;20471;49.680;20.074;2023-02-10T11:03:01;98815.52;;;7.07;45.92
34205;BME280;20471;49.680;20.074;2023-02-10T11:05:35;98812.98;;;7.14;45.98
34205;BME280;20471;49.680;20.074;2023-02-10T11:08:05;98813.02;;;7.36;46.77
34205;BME280;20471;49.680;20.074;2023-02-10T11:10:50;98814.85;;;7.71;47.13
34205;BME280;20471;49.680;20.074;2023-02-10T11:13:24;98813.95;;;8.03;45.93
34205;BME280;20471;49.680;20.074;2023-02-10T11:16:03;98810.11;;;8.26;45.19
34205;BME280;20471;49.680;20.074;2023-02-10T11:18:32;98807.89;;;8.30;44.67
34205;BME280;20471;49.680;20.074;2023-02-10T11:21:03;98803.71;;;8.20;44.13
34205;BME280;20471;49.680;20.074;2023-02-10T11:23:46;98803.88;;;8.04;43.95
34205;BME280;20471;49.680;20.074;2023-02-10T11:26:21;98802.92;;;7.94;44.10
34205;BME280;20471;49.680;20.074;2023-02-10T11:28:51;98799.25;;;7.86;43.98
34205;BME280;20471;49.680;20.074;2023-02-10T11:31:27;98795.17;;;7.84;44.01
34205;BME280;20471;49.680;20.074;2023-02-10T11:34:02;98794.20;;;7.92;43.99
34205;BME280;20471;49.680;20.074;2023-02-10T11:36:39;98793.95;;;7.90;44.01
34205;BME280;20471;49.680;20.074;2023-02-10T11:39:23;98790.52;;;7.94;43.91
34205;BME280;20471;49.680;20.074;2023-02-10T11:41:53;98784.93;;;8.00;43.96
34205;BME280;20471;49.680;20.074;2023-02-10T11:44:30;98787.05;;;7.86;43.33
34205;BME280;20471;49.680;20.074;2023-02-10T11:47:03;98783.11;;;7.78;43.40
34205;BME280;20471;49.680;20.074;2023-02-10T11:49:34;98786.11;;;7.75;43.61
34205;BME280;20471;49.680;20.074;2023-02-10T11:52:04;98783.02;;;7.58;43.19
34205;BME280;20471;49.680;20.074;2023-02-10T11:54:32;98782.91;;;7.50;43.64
34205;BME280;20471;49.680;20.074;2023-02-10T12:03:35;98778.00;;;7.65;43.58
34205;BME280;20471;49.680;20.074;2023-02-10T12:09:27;98781.09;;;7.51;43.44
34205;BME280;20471;49.680;20.074;2023-02-10T12:12:15;98782.48;;;7.38;43.28
34205;BME280;20471;49.680;20.074;2023-02-10T12:31:45;98781.17;;;6.98;43.56
34205;BME280;20471;49.680;20.074;2023-02-10T12:37:22;98779.39;;;6.75;43.40
34205;BME280;20471;49.680;20.074;2023-02-10T12:40:05;98769.48;;;6.56;43.46
34205;BME280;20471;49.680;20.074;2023-02-10T12:42:49;98772.30;;;6.49;43.70
34205;BME280;20471;49.680;20.074;2023-02-10T12:45:28;98774.30;;;6.35;43.71
34205;BME280;20471;49.680;20.074;2023-02-10T15:15:50;98841.29;;;4.35;47.18
34205;BME280;20471;49.680;20.074;2023-02-10T15:21:32;98845.15;;;4.07;47.37
34205;BME280;20471;49.680;20.074;2023-02-10T15:24:01;98847.33;;;3.89;47.58
34205;BME280;20471;49.680;20.074;2023-02-10T15:26:32;98849.34;;;3.78;47.77
34205;BME280;20471;49.680;20.074;2023-02-10T15:29:12;98852.94;;;3.68;48.02
34205;BME280;20471;49.680;20.074;2023-02-10T15:31:57;98859.09;;;3.62;48.37
34205;BME280;20471;49.680;20.074;2023-02-10T15:34:50;98862.38;;;3.55;48.56
34205;BME280;20471;49.680;20.074;2023-02-10T15:37:23;98862.11;;;3.48;49.10
34205;BME280;20471;49.680;20.074;2023-02-10T15:39:56;98863.94;;;3.43;49.00
34205;BME280;20471;49.680;20.074;2023-02-10T15:42:31;98870.63;;;3.40;49.02
34205;BME280;20471;49.680;20.074;2023-02-10T15:45:04;98871.39;;;3.36;49.19
34205;BME280;20471;49.680;20.074;2023-02-10T15:47:53;98870.52;;;3.33;49.35
34205;BME280;20471;49.680;20.074;2023-02-10T15:50:22;98869.47;;;3.29;49.46
34205;BME280;20471;49.680;20.074;2023-02-10T15:52:51;98872.26;;;3.23;49.70
34205;BME280;20471;49.680;20.074;2023-02-10T15:55:31;98872.89;;;3.18;50.13
34205;BME280;20471;49.680;20.074;2023-02-10T15:58:02;98870.38;;;3.05;50.67
34205;BME280;20471;49.680;20.074;2023-02-10T16:00:36;98869.67;;;2.97;50.83
34205;BME280;20471;49.680;20.074;2023-02-10T16:03:05;98874.13;;;2.88;51.21
34205;BME280;20471;49.680;20.074;2023-02-10T16:05:36;98883.55;;;2.80;51.86
34205;BME280;20471;49.680;20.074;2023-02-10T16:08:28;98885.69;;;2.71;52.20
34205;BME280;20471;49.680;20.074;2023-02-10T16:10:57;98886.04;;;2.52;52.29
34205;BME280;20471;49.680;20.074;2023-02-10T16:13:26;98893.55;;;2.38;52.94
34205;BME280;20471;49.680;20.074;2023-02-10T16:15:55;98893.97;;;2.24;52.87
34205;BME280;20471;49.680;20.074;2023-02-10T16:18:24;98898.45;;;2.10;53.27
34205;BME280;20471;49.680;20.074;2023-02-10T16:20:56;98902.16;;;2.02;53.29
34205;BME280;20471;49.680;20.074;2023-02-10T16:23:47;98903.76;;;1.82;53.54
34205;BME280;20471;49.680;20.074;2023-02-10T16:26:21;98910.30;;;1.71;53.89
34205;BME280;20471;49.680;20.074;2023-02-10T16:28:51;98914.24;;;1.63;54.02
34205;BME280;20471;49.680;20.074;2023-02-10T16:31:20;98919.15;;;1.55;54.20
34205;BME280;20471;49.680;20.074;2023-02-10T16:33:49;98918.28;;;1.50;54.34
34205;BME280;20471;49.680;20.074;2023-02-10T16:36:18;98922.80;;;1.45;54.51
34205;BME280;20471;49.680;20.074;2023-02-10T16:38:48;98926.73;;;1.39;54.70
34205;BME280;20471;49.680;20.074;2023-02-10T16:41:19;98931.76;;;1.32;54.95
34205;BME280;20471;49.680;20.074;2023-02-10T16:43:50;98936.95;;;1.22;54.90
34205;BME280;20471;49.680;20.074;2023-02-10T16:46:19;98938.33;;;1.06;54.97
34205;BME280;20471;49.680;20.074;2023-02-10T16:48:48;98937.41;;;0.92;55.48
34205;BME280;20471;49.680;20.074;2023-02-10T16:51:17;98936.42;;;0.89;55.72
34205;BME280;20471;49.680;20.074;2023-02-10T16:53:47;98936.75;;;0.85;55.84
34205;BME280;20471;49.680;20.074;2023-02-10T16:56:22;98939.02;;;0.81;56.28
34205;BME280;20471;49.680;20.074;2023-02-10T16:58:51;98935.90;;;0.77;56.45
34205;BME280;20471;49.680;20.074;2023-02-10T17:01:20;98933.02;;;0.73;56.60
34205;BME280;20471;49.680;20.074;2023-02-10T17:03:49;98934.10;;;0.68;56.63
34205;BME280;20471;49.680;20.074;2023-02-10T17:06:20;98934.47;;;0.63;56.63
34205;BME280;20471;49.680;20.074;2023-02-10T17:08:49;98937.27;;;0.56;56.68
34205;BME280;20471;49.680;20.074;2023-02-10T17:11:18;98942.30;;;0.51;56.78
34205;BME280;20471;49.680;20.074;2023-02-10T17:13:47;98941.98;;;0.45;57.10